Boston, Massachusetts
Traffic Map
Current Weather Conditions
Boston, Massachusetts
Scattered Clouds
Scattered Clouds

Feels Like: -1°
Wind Chill: -1° Ceiling: Unl
Heat Index: Visibility: 10mi
Dew Point: Wind: 8mph
Humidity: 86% Direction: 220° (SW)
Pressure: 29.95in Gusts: 0mph
Raw Report DataKBOS 080854Z 22007KT 10SM SCT110 03/01 A2995 RMK AO2 SLP142 T00280006 57008
Traffic Incident Summary
Active as of:
Severity:
Category:
InformationThere was an issue retrieving the traffic information for this location. Please try a different location or try again shortly.
Advertisements
Track Severe Weather on mobile